Langdon Bay, United Kingdom
Current Conditions -  °F | °C
As of 2:20 PM on Tuesday 21 Oct 2014 (Local Time) from EGMD Reporting Station
Rain Showers Rain Showers  
Wind Chill: 57°   Ceiling: Unl
Heat Index: 57°   Visibility: 6mi
Dew Point: 43°   Wind: 22mph
Humidity: 59%   Direction: 290°WNW
Pressure: 29.74"   Gusts: NA
Location:  51.13°N, 1.35°E
Report Text: EGMD 211320Z 29019KT 9999 VCSH SCT041TCU 14/06 Q1007
Loading
Personal Weather Stations






























Interactive Weather Map
Tropical Storm Tracking
New forecast layout! Learn more

10-Day Weather Forecast

Advertisements
Track Severe Weather on mobile